sensor_id;sensor_type;location;lat;lon;timestamp;P1;durP1;ratioP1;P2;durP2;ratioP2
19043;SDS011;9654;52.302;8.120;2023-05-10T00:00:38;14.87;;;10.87;;
19043;SDS011;9654;52.302;8.120;2023-05-10T00:03:05;15.47;;;11.17;;
19043;SDS011;9654;52.302;8.120;2023-05-10T00:05:32;17.20;;;12.27;;
19043;SDS011;9654;52.302;8.120;2023-05-10T00:07:59;20.03;;;13.47;;
19043;SDS011;9654;52.302;8.120;2023-05-10T00:10:26;19.07;;;11.83;;
19043;SDS011;9654;52.302;8.120;2023-05-10T00:12:52;17.93;;;13.00;;
19043;SDS011;9654;52.302;8.120;2023-05-10T00:15:19;16.23;;;11.90;;
19043;SDS011;9654;52.302;8.120;2023-05-10T00:17:47;15.67;;;10.77;;
19043;SDS011;9654;52.302;8.120;2023-05-10T00:20:14;17.10;;;11.77;;
19043;SDS011;9654;52.302;8.120;2023-05-10T00:22:41;17.53;;;11.47;;
19043;SDS011;9654;52.302;8.120;2023-05-10T00:25:08;13.10;;;10.30;;
19043;SDS011;9654;52.302;8.120;2023-05-10T00:27:35;16.77;;;10.80;;
19043;SDS011;9654;52.302;8.120;2023-05-10T00:30:02;14.63;;;9.50;;
19043;SDS011;9654;52.302;8.120;2023-05-10T00:32:29;16.77;;;10.80;;
19043;SDS011;9654;52.302;8.120;2023-05-10T00:34:57;12.27;;;9.93;;
19043;SDS011;9654;52.302;8.120;2023-05-10T00:37:24;11.70;;;9.03;;
19043;SDS011;9654;52.302;8.120;2023-05-10T00:39:51;12.30;;;9.80;;
19043;SDS011;9654;52.302;8.120;2023-05-10T00:42:18;12.90;;;10.00;;
19043;SDS011;9654;52.302;8.120;2023-05-10T00:44:45;13.90;;;9.90;;
19043;SDS011;9654;52.302;8.120;2023-05-10T00:47:11;15.13;;;10.30;;
19043;SDS011;9654;52.302;8.120;2023-05-10T00:49:38;13.37;;;10.17;;
19043;SDS011;9654;52.302;8.120;2023-05-10T00:52:08;13.67;;;10.67;;
19043;SDS011;9654;52.302;8.120;2023-05-10T00:54:35;14.90;;;10.93;;
19043;SDS011;9654;52.302;8.120;2023-05-10T00:57:02;13.80;;;10.30;;
19043;SDS011;9654;52.302;8.120;2023-05-10T00:59:29;15.17;;;9.47;;
19043;SDS011;9654;52.302;8.120;2023-05-10T01:01:56;15.43;;;10.90;;
19043;SDS011;9654;52.302;8.120;2023-05-10T01:04:23;16.37;;;10.47;;
19043;SDS011;9654;52.302;8.120;2023-05-10T01:06:51;17.83;;;10.80;;
19043;SDS011;9654;52.302;8.120;2023-05-10T01:09:20;14.73;;;11.03;;
19043;SDS011;9654;52.302;8.120;2023-05-10T01:11:48;17.63;;;11.60;;
19043;SDS011;9654;52.302;8.120;2023-05-10T01:14:15;14.17;;;10.43;;
19043;SDS011;9654;52.302;8.120;2023-05-10T01:16:44;13.73;;;10.53;;
19043;SDS011;9654;52.302;8.120;2023-05-10T01:19:12;15.07;;;9.97;;
19043;SDS011;9654;52.302;8.120;2023-05-10T01:21:47;14.80;;;11.30;;
19043;SDS011;9654;52.302;8.120;2023-05-10T01:24:28;13.07;;;9.53;;
19043;SDS011;9654;52.302;8.120;2023-05-10T01:30:25;13.90;;;9.87;;
19043;SDS011;9654;52.302;8.120;2023-05-10T01:33:17;13.17;;;9.40;;
19043;SDS011;9654;52.302;8.120;2023-05-10T01:35:50;15.47;;;10.87;;
19043;SDS011;9654;52.302;8.120;2023-05-10T01:38:22;14.67;;;10.10;;
19043;SDS011;9654;52.302;8.120;2023-05-10T01:40:57;14.60;;;10.53;;
19043;SDS011;9654;52.302;8.120;2023-05-10T01:43:35;13.07;;;10.07;;
19043;SDS011;9654;52.302;8.120;2023-05-10T01:46:09;14.23;;;10.00;;
19043;SDS011;9654;52.302;8.120;2023-05-10T01:48:46;12.80;;;9.83;;
19043;SDS011;9654;52.302;8.120;2023-05-10T01:51:14;14.30;;;10.00;;
19043;SDS011;9654;52.302;8.120;2023-05-10T01:53:55;16.27;;;9.90;;
19043;SDS011;9654;52.302;8.120;2023-05-10T01:56:25;14.60;;;10.33;;
19043;SDS011;9654;52.302;8.120;2023-05-10T01:58:54;12.63;;;9.93;;
19043;SDS011;9654;52.302;8.120;2023-05-10T02:01:22;15.93;;;9.30;;
19043;SDS011;9654;52.302;8.120;2023-05-10T02:03:52;14.77;;;10.67;;
19043;SDS011;9654;52.302;8.120;2023-05-10T02:06:21;13.23;;;10.20;;
19043;SDS011;9654;52.302;8.120;2023-05-10T02:08:49;13.63;;;10.17;;
19043;SDS011;9654;52.302;8.120;2023-05-10T02:11:18;13.90;;;9.23;;
19043;SDS011;9654;52.302;8.120;2023-05-10T02:13:47;11.67;;;8.73;;
19043;SDS011;9654;52.302;8.120;2023-05-10T02:16:15;12.13;;;9.00;;
19043;SDS011;9654;52.302;8.120;2023-05-10T02:18:44;10.53;;;7.93;;
19043;SDS011;9654;52.302;8.120;2023-05-10T02:21:14;9.97;;;7.03;;
19043;SDS011;9654;52.302;8.120;2023-05-10T02:23:43;8.23;;;6.47;;
19043;SDS011;9654;52.302;8.120;2023-05-10T02:26:11;10.43;;;5.73;;
19043;SDS011;9654;52.302;8.120;2023-05-10T02:28:38;8.87;;;6.27;;
19043;SDS011;9654;52.302;8.120;2023-05-10T02:31:06;7.13;;;6.13;;
19043;SDS011;9654;52.302;8.120;2023-05-10T02:33:34;8.73;;;6.73;;
19043;SDS011;9654;52.302;8.120;2023-05-10T02:36:02;6.30;;;5.17;;
19043;SDS011;9654;52.302;8.120;2023-05-10T02:38:31;8.27;;;5.93;;
19043;SDS011;9654;52.302;8.120;2023-05-10T02:40:59;7.00;;;6.03;;
19043;SDS011;9654;52.302;8.120;2023-05-10T02:43:28;8.63;;;6.80;;
19043;SDS011;9654;52.302;8.120;2023-05-10T02:45:57;9.13;;;6.27;;
19043;SDS011;9654;52.302;8.120;2023-05-10T02:48:24;5.47;;;4.97;;
19043;SDS011;9654;52.302;8.120;2023-05-10T02:50:51;4.97;;;4.47;;
19043;SDS011;9654;52.302;8.120;2023-05-10T02:53:22;5.03;;;4.50;;
19043;SDS011;9654;52.302;8.120;2023-05-10T02:55:57;6.30;;;5.13;;
19043;SDS011;9654;52.302;8.120;2023-05-10T02:58:26;4.40;;;4.00;;
19043;SDS011;9654;52.302;8.120;2023-05-10T03:00:53;6.27;;;5.30;;
19043;SDS011;9654;52.302;8.120;2023-05-10T03:03:20;4.37;;;3.90;;
19043;SDS011;9654;52.302;8.120;2023-05-10T03:05:47;5.30;;;4.50;;
19043;SDS011;9654;52.302;8.120;2023-05-10T03:08:13;3.83;;;3.13;;
19043;SDS011;9654;52.302;8.120;2023-05-10T03:10:41;4.53;;;2.90;;
19043;SDS011;9654;52.302;8.120;2023-05-10T03:13:16;2.47;;;2.27;;
19043;SDS011;9654;52.302;8.120;2023-05-10T03:15:58;2.43;;;2.23;;
19043;SDS011;9654;52.302;8.120;2023-05-10T03:18:33;4.63;;;2.43;;
19043;SDS011;9654;52.302;8.120;2023-05-10T03:21:07;4.70;;;2.27;;
19043;SDS011;9654;52.302;8.120;2023-05-10T03:23:40;2.63;;;1.93;;
19043;SDS011;9654;52.302;8.120;2023-05-10T03:26:09;2.23;;;1.97;;
19043;SDS011;9654;52.302;8.120;2023-05-10T03:28:43;1.80;;;1.70;;
19043;SDS011;9654;52.302;8.120;2023-05-10T03:31:10;2.70;;;2.50;;
19043;SDS011;9654;52.302;8.120;2023-05-10T03:33:45;3.93;;;2.80;;
19043;SDS011;9654;52.302;8.120;2023-05-10T03:36:12;3.90;;;3.50;;
19043;SDS011;9654;52.302;8.120;2023-05-10T03:38:39;4.07;;;3.67;;
19043;SDS011;9654;52.302;8.120;2023-05-10T03:41:06;10.57;;;4.20;;
19043;SDS011;9654;52.302;8.120;2023-05-10T03:43:33;3.90;;;3.53;;
19043;SDS011;9654;52.302;8.120;2023-05-10T03:46:02;3.73;;;3.40;;
19043;SDS011;9654;52.302;8.120;2023-05-10T03:48:29;6.97;;;4.10;;
19043;SDS011;9654;52.302;8.120;2023-05-10T03:50:56;4.80;;;3.90;;
19043;SDS011;9654;52.302;8.120;2023-05-10T03:53:23;5.07;;;4.07;;
19043;SDS011;9654;52.302;8.120;2023-05-10T03:55:49;4.03;;;3.63;;
19043;SDS011;9654;52.302;8.120;2023-05-10T03:58:16;4.07;;;3.67;;
19043;SDS011;9654;52.302;8.120;2023-05-10T04:00:43;5.30;;;4.27;;
19043;SDS011;9654;52.302;8.120;2023-05-10T04:03:12;5.90;;;4.37;;
19043;SDS011;9654;52.302;8.120;2023-05-10T04:05:39;5.23;;;4.70;;
19043;SDS011;9654;52.302;8.120;2023-05-10T04:08:06;8.93;;;5.10;;
19043;SDS011;9654;52.302;8.120;2023-05-10T04:10:33;9.30;;;5.63;;
19043;SDS011;9654;52.302;8.120;2023-05-10T04:13:00;7.97;;;5.67;;
19043;SDS011;9654;52.302;8.120;2023-05-10T04:15:26;10.00;;;6.47;;
19043;SDS011;9654;52.302;8.120;2023-05-10T04:17:53;9.37;;;6.77;;
19043;SDS011;9654;52.302;8.120;2023-05-10T04:20:21;10.57;;;6.87;;
19043;SDS011;9654;52.302;8.120;2023-05-10T04:22:48;12.30;;;7.43;;
19043;SDS011;9654;52.302;8.120;2023-05-10T04:25:15;12.17;;;7.70;;
19043;SDS011;9654;52.302;8.120;2023-05-10T04:27:42;10.00;;;7.50;;
19043;SDS011;9654;52.302;8.120;2023-05-10T04:30:09;12.60;;;8.70;;
19043;SDS011;9654;52.302;8.120;2023-05-10T04:32:36;12.80;;;9.17;;
19043;SDS011;9654;52.302;8.120;2023-05-10T04:35:03;14.13;;;9.57;;
19043;SDS011;9654;52.302;8.120;2023-05-10T04:37:32;14.33;;;10.40;;
19043;SDS011;9654;52.302;8.120;2023-05-10T04:39:58;16.57;;;10.50;;
19043;SDS011;9654;52.302;8.120;2023-05-10T04:42:25;16.93;;;10.43;;
19043;SDS011;9654;52.302;8.120;2023-05-10T04:44:52;16.97;;;11.30;;
19043;SDS011;9654;52.302;8.120;2023-05-10T04:47:19;16.43;;;11.27;;
19043;SDS011;9654;52.302;8.120;2023-05-10T04:49:46;17.43;;;11.20;;
19043;SDS011;9654;52.302;8.120;2023-05-10T04:52:13;18.37;;;11.33;;
19043;SDS011;9654;52.302;8.120;2023-05-10T04:54:43;16.83;;;10.53;;
19043;SDS011;9654;52.302;8.120;2023-05-10T04:57:10;16.33;;;9.90;;
19043;SDS011;9654;52.302;8.120;2023-05-10T04:59:37;14.23;;;9.77;;
19043;SDS011;9654;52.302;8.120;2023-05-10T05:02:04;18.03;;;11.20;;
19043;SDS011;9654;52.302;8.120;2023-05-10T05:04:31;17.63;;;11.03;;
19043;SDS011;9654;52.302;8.120;2023-05-10T05:06:58;15.93;;;10.93;;
19043;SDS011;9654;52.302;8.120;2023-05-10T05:09:25;15.90;;;10.37;;
19043;SDS011;9654;52.302;8.120;2023-05-10T05:11:53;16.47;;;10.40;;
19043;SDS011;9654;52.302;8.120;2023-05-10T05:14:20;14.00;;;9.70;;
19043;SDS011;9654;52.302;8.120;2023-05-10T05:16:47;13.27;;;8.60;;
19043;SDS011;9654;52.302;8.120;2023-05-10T05:19:13;15.30;;;8.33;;
19043;SDS011;9654;52.302;8.120;2023-05-10T05:21:40;12.20;;;7.67;;
19043;SDS011;9654;52.302;8.120;2023-05-10T05:24:07;15.13;;;8.20;;
19043;SDS011;9654;52.302;8.120;2023-05-10T05:26:35;9.70;;;7.80;;
19043;SDS011;9654;52.302;8.120;2023-05-10T05:29:03;13.13;;;8.50;;
19043;SDS011;9654;52.302;8.120;2023-05-10T05:31:30;12.30;;;8.40;;
19043;SDS011;9654;52.302;8.120;2023-05-10T05:33:57;13.20;;;8.20;;
19043;SDS011;9654;52.302;8.120;2023-05-10T05:36:24;13.87;;;8.50;;
19043;SDS011;9654;52.302;8.120;2023-05-10T05:38:50;11.83;;;8.07;;
19043;SDS011;9654;52.302;8.120;2023-05-10T05:41:17;12.53;;;7.13;;
19043;SDS011;9654;52.302;8.120;2023-05-10T05:43:44;14.77;;;8.30;;
19043;SDS011;9654;52.302;8.120;2023-05-10T05:46:13;11.50;;;7.63;;
19043;SDS011;9654;52.302;8.120;2023-05-10T05:48:39;13.00;;;8.70;;
19043;SDS011;9654;52.302;8.120;2023-05-10T05:51:06;16.70;;;9.20;;
19043;SDS011;9654;52.302;8.120;2023-05-10T05:53:33;14.97;;;8.90;;
19043;SDS011;9654;52.302;8.120;2023-05-10T05:56:00;19.03;;;10.07;;
19043;SDS011;9654;52.302;8.120;2023-05-10T05:58:28;12.87;;;9.00;;
19043;SDS011;9654;52.302;8.120;2023-05-10T06:00:55;11.20;;;7.97;;
19043;SDS011;9654;52.302;8.120;2023-05-10T06:03:23;12.93;;;8.43;;
19043;SDS011;9654;52.302;8.120;2023-05-10T06:05:50;9.77;;;7.33;;
19043;SDS011;9654;52.302;8.120;2023-05-10T06:08:16;15.40;;;8.53;;
19043;SDS011;9654;52.302;8.120;2023-05-10T06:10:43;11.50;;;8.27;;
19043;SDS011;9654;52.302;8.120;2023-05-10T06:13:10;10.43;;;8.20;;
19043;SDS011;9654;52.302;8.120;2023-05-10T06:15:37;15.17;;;8.70;;
19043;SDS011;9654;52.302;8.120;2023-05-10T06:18:04;12.50;;;9.07;;
19043;SDS011;9654;52.302;8.120;2023-05-10T06:20:33;15.67;;;9.53;;
19043;SDS011;9654;52.302;8.120;2023-05-10T06:22:59;14.40;;;9.43;;
19043;SDS011;9654;52.302;8.120;2023-05-10T06:25:26;16.80;;;8.97;;
19043;SDS011;9654;52.302;8.120;2023-05-10T06:27:53;13.37;;;8.33;;
19043;SDS011;9654;52.302;8.120;2023-05-10T06:30:23;13.77;;;8.93;;
19043;SDS011;9654;52.302;8.120;2023-05-10T06:32:53;11.53;;;8.93;;
19043;SDS011;9654;52.302;8.120;2023-05-10T06:35:20;12.20;;;9.10;;
19043;SDS011;9654;52.302;8.120;2023-05-10T06:37:49;11.43;;;8.07;;
19043;SDS011;9654;52.302;8.120;2023-05-10T06:40:16;10.60;;;8.20;;
19043;SDS011;9654;52.302;8.120;2023-05-10T07:00:14;15.60;;;9.33;;
19043;SDS011;9654;52.302;8.120;2023-05-10T07:02:41;12.67;;;9.00;;
19043;SDS011;9654;52.302;8.120;2023-05-10T07:05:08;14.90;;;8.77;;
19043;SDS011;9654;52.302;8.120;2023-05-10T07:07:35;11.83;;;8.80;;
19043;SDS011;9654;52.302;8.120;2023-05-10T07:10:02;16.37;;;9.70;;
19043;SDS011;9654;52.302;8.120;2023-05-10T07:12:29;16.67;;;9.97;;
19043;SDS011;9654;52.302;8.120;2023-05-10T07:14:56;17.50;;;10.40;;
19043;SDS011;9654;52.302;8.120;2023-05-10T07:17:24;20.57;;;10.93;;
19043;SDS011;9654;52.302;8.120;2023-05-10T07:19:51;23.50;;;11.30;;
19043;SDS011;9654;52.302;8.120;2023-05-10T07:22:18;22.47;;;11.67;;
19043;SDS011;9654;52.302;8.120;2023-05-10T07:24:45;21.83;;;12.57;;
19043;SDS011;9654;52.302;8.120;2023-05-10T07:27:11;24.97;;;13.40;;
19043;SDS011;9654;52.302;8.120;2023-05-10T07:29:38;27.43;;;12.80;;
19043;SDS011;9654;52.302;8.120;2023-05-10T07:32:05;24.50;;;13.43;;
19043;SDS011;9654;52.302;8.120;2023-05-10T07:34:33;23.33;;;13.30;;
19043;SDS011;9654;52.302;8.120;2023-05-10T07:37:00;25.77;;;14.63;;
19043;SDS011;9654;52.302;8.120;2023-05-10T07:39:27;26.77;;;14.20;;
19043;SDS011;9654;52.302;8.120;2023-05-10T07:41:54;24.90;;;13.00;;
19043;SDS011;9654;52.302;8.120;2023-05-10T07:44:22;24.87;;;14.00;;
19043;SDS011;9654;52.302;8.120;2023-05-10T07:46:48;30.20;;;14.73;;
19043;SDS011;9654;52.302;8.120;2023-05-10T07:49:15;26.77;;;14.13;;
19043;SDS011;9654;52.302;8.120;2023-05-10T07:51:43;29.20;;;13.80;;
19043;SDS011;9654;52.302;8.120;2023-05-10T07:54:10;32.57;;;15.27;;
19043;SDS011;9654;52.302;8.120;2023-05-10T07:56:37;30.70;;;15.37;;
19043;SDS011;9654;52.302;8.120;2023-05-10T07:59:05;30.23;;;14.10;;
19043;SDS011;9654;52.302;8.120;2023-05-10T08:01:32;29.60;;;15.00;;
19043;SDS011;9654;52.302;8.120;2023-05-10T08:04:00;27.93;;;14.50;;
19043;SDS011;9654;52.302;8.120;2023-05-10T08:06:27;23.93;;;13.53;;
19043;SDS011;9654;52.302;8.120;2023-05-10T08:08:56;26.50;;;13.90;;
19043;SDS011;9654;52.302;8.120;2023-05-10T08:11:23;24.83;;;13.87;;
19043;SDS011;9654;52.302;8.120;2023-05-10T08:13:50;27.97;;;15.27;;
19043;SDS011;9654;52.302;8.120;2023-05-10T08:16:17;29.00;;;15.37;;
19043;SDS011;9654;52.302;8.120;2023-05-10T08:18:44;32.77;;;16.27;;
19043;SDS011;9654;52.302;8.120;2023-05-10T08:21:12;35.90;;;17.97;;
19043;SDS011;9654;52.302;8.120;2023-05-10T08:23:39;34.93;;;16.87;;
19043;SDS011;9654;52.302;8.120;2023-05-10T08:26:09;37.50;;;17.43;;
19043;SDS011;9654;52.302;8.120;2023-05-10T08:28:36;34.57;;;16.97;;
19043;SDS011;9654;52.302;8.120;2023-05-10T08:31:03;35.63;;;16.93;;
19043;SDS011;9654;52.302;8.120;2023-05-10T08:33:30;35.87;;;17.53;;
19043;SDS011;9654;52.302;8.120;2023-05-10T08:35:57;34.23;;;16.43;;
19043;SDS011;9654;52.302;8.120;2023-05-10T08:38:24;35.60;;;17.63;;
19043;SDS011;9654;52.302;8.120;2023-05-10T08:40:51;32.13;;;17.57;;
19043;SDS011;9654;52.302;8.120;2023-05-10T08:43:22;32.90;;;17.90;;
19043;SDS011;9654;52.302;8.120;2023-05-10T08:45:53;29.20;;;16.07;;
19043;SDS011;9654;52.302;8.120;2023-05-10T08:48:21;27.17;;;14.67;;
19043;SDS011;9654;52.302;8.120;2023-05-10T08:50:51;29.47;;;15.83;;
19043;SDS011;9654;52.302;8.120;2023-05-10T08:53:19;28.17;;;15.20;;
19043;SDS011;9654;52.302;8.120;2023-05-10T08:55:47;29.53;;;15.27;;
19043;SDS011;9654;52.302;8.120;2023-05-10T08:58:14;28.37;;;15.10;;
19043;SDS011;9654;52.302;8.120;2023-05-10T09:00:42;29.80;;;15.47;;
19043;SDS011;9654;52.302;8.120;2023-05-10T09:03:09;28.03;;;14.60;;
19043;SDS011;9654;52.302;8.120;2023-05-10T09:05:36;27.10;;;14.23;;
19043;SDS011;9654;52.302;8.120;2023-05-10T09:08:03;27.13;;;14.23;;
19043;SDS011;9654;52.302;8.120;2023-05-10T09:10:31;27.57;;;14.00;;
19043;SDS011;9654;52.302;8.120;2023-05-10T09:12:58;25.20;;;13.70;;
19043;SDS011;9654;52.302;8.120;2023-05-10T09:15:25;22.70;;;12.77;;
19043;SDS011;9654;52.302;8.120;2023-05-10T09:17:53;23.30;;;12.20;;
19043;SDS011;9654;52.302;8.120;2023-05-10T09:20:21;24.37;;;12.80;;
19043;SDS011;9654;52.302;8.120;2023-05-10T09:22:47;25.93;;;12.57;;
19043;SDS011;9654;52.302;8.120;2023-05-10T09:25:15;25.40;;;13.17;;
19043;SDS011;9654;52.302;8.120;2023-05-10T09:27:43;25.80;;;12.97;;
19043;SDS011;9654;52.302;8.120;2023-05-10T09:30:15;25.87;;;12.23;;
19043;SDS011;9654;52.302;8.120;2023-05-10T09:32:44;25.27;;;12.53;;
19043;SDS011;9654;52.302;8.120;2023-05-10T09:35:13;25.77;;;13.50;;
19043;SDS011;9654;52.302;8.120;2023-05-10T09:37:42;29.63;;;15.03;;
19043;SDS011;9654;52.302;8.120;2023-05-10T09:40:11;27.50;;;14.80;;
19043;SDS011;9654;52.302;8.120;2023-05-10T09:42:39;27.73;;;13.73;;
19043;SDS011;9654;52.302;8.120;2023-05-10T09:45:08;23.63;;;14.17;;
19043;SDS011;9654;52.302;8.120;2023-05-10T09:47:35;27.50;;;14.87;;
19043;SDS011;9654;52.302;8.120;2023-05-10T09:50:02;26.20;;;14.23;;
19043;SDS011;9654;52.302;8.120;2023-05-10T09:52:32;27.60;;;14.70;;
19043;SDS011;9654;52.302;8.120;2023-05-10T09:55:12;29.17;;;14.17;;
19043;SDS011;9654;52.302;8.120;2023-05-10T09:57:39;26.63;;;14.40;;
19043;SDS011;9654;52.302;8.120;2023-05-10T10:00:07;25.40;;;13.30;;
19043;SDS011;9654;52.302;8.120;2023-05-10T10:02:35;26.13;;;13.77;;
19043;SDS011;9654;52.302;8.120;2023-05-10T10:05:02;25.37;;;14.83;;
19043;SDS011;9654;52.302;8.120;2023-05-10T10:07:29;23.03;;;13.27;;
19043;SDS011;9654;52.302;8.120;2023-05-10T10:09:57;22.63;;;12.80;;
19043;SDS011;9654;52.302;8.120;2023-05-10T10:12:25;24.53;;;13.13;;
19043;SDS011;9654;52.302;8.120;2023-05-10T10:14:52;21.27;;;12.50;;
19043;SDS011;9654;52.302;8.120;2023-05-10T10:17:20;24.57;;;12.07;;
19043;SDS011;9654;52.302;8.120;2023-05-10T10:19:47;23.30;;;13.17;;
19043;SDS011;9654;52.302;8.120;2023-05-10T10:22:15;23.30;;;13.20;;
19043;SDS011;9654;52.302;8.120;2023-05-10T10:24:43;24.87;;;13.20;;
19043;SDS011;9654;52.302;8.120;2023-05-10T10:27:28;24.00;;;13.93;;
19043;SDS011;9654;52.302;8.120;2023-05-10T10:30:04;23.33;;;13.10;;
19043;SDS011;9654;52.302;8.120;2023-05-10T10:32:42;22.87;;;12.70;;
19043;SDS011;9654;52.302;8.120;2023-05-10T10:35:35;21.03;;;12.67;;
19043;SDS011;9654;52.302;8.120;2023-05-10T10:38:02;21.93;;;12.43;;
19043;SDS011;9654;52.302;8.120;2023-05-10T10:40:30;22.03;;;12.30;;
19043;SDS011;9654;52.302;8.120;2023-05-10T10:43:20;24.00;;;12.50;;
19043;SDS011;9654;52.302;8.120;2023-05-10T10:48:43;18.20;;;11.00;;
19043;SDS011;9654;52.302;8.120;2023-05-10T10:51:14;22.73;;;12.07;;
19043;SDS011;9654;52.302;8.120;2023-05-10T10:53:41;23.50;;;13.13;;
19043;SDS011;9654;52.302;8.120;2023-05-10T10:56:09;23.73;;;13.47;;
19043;SDS011;9654;52.302;8.120;2023-05-10T10:58:39;22.97;;;13.17;;
19043;SDS011;9654;52.302;8.120;2023-05-10T11:01:11;22.87;;;12.33;;
19043;SDS011;9654;52.302;8.120;2023-05-10T11:03:39;27.93;;;13.67;;
19043;SDS011;9654;52.302;8.120;2023-05-10T11:06:06;24.20;;;12.07;;
19043;SDS011;9654;52.302;8.120;2023-05-10T11:08:34;16.23;;;9.70;;
19043;SDS011;9654;52.302;8.120;2023-05-10T11:11:08;22.47;;;11.43;;
19043;SDS011;9654;52.302;8.120;2023-05-10T11:13:40;17.87;;;10.77;;
19043;SDS011;9654;52.302;8.120;2023-05-10T11:16:15;17.27;;;10.80;;
19043;SDS011;9654;52.302;8.120;2023-05-10T11:18:52;17.80;;;9.83;;
19043;SDS011;9654;52.302;8.120;2023-05-10T11:21:24;20.27;;;10.50;;
19043;SDS011;9654;52.302;8.120;2023-05-10T11:23:51;21.03;;;10.80;;
19043;SDS011;9654;52.302;8.120;2023-05-10T11:26:21;20.30;;;10.93;;
19043;SDS011;9654;52.302;8.120;2023-05-10T11:28:52;23.67;;;11.17;;
19043;SDS011;9654;52.302;8.120;2023-05-10T11:31:21;19.50;;;10.37;;
19043;SDS011;9654;52.302;8.120;2023-05-10T11:33:49;16.23;;;10.13;;
19043;SDS011;9654;52.302;8.120;2023-05-10T11:36:17;16.57;;;9.93;;
19043;SDS011;9654;52.302;8.120;2023-05-10T11:38:45;17.97;;;11.00;;
19043;SDS011;9654;52.302;8.120;2023-05-10T11:41:12;21.30;;;10.47;;
19043;SDS011;9654;52.302;8.120;2023-05-10T11:43:39;22.17;;;11.03;;
19043;SDS011;9654;52.302;8.120;2023-05-10T11:46:09;21.60;;;10.87;;
19043;SDS011;9654;52.302;8.120;2023-05-10T11:48:38;20.43;;;10.90;;
19043;SDS011;9654;52.302;8.120;2023-05-10T11:51:05;20.13;;;11.53;;
19043;SDS011;9654;52.302;8.120;2023-05-10T11:53:33;19.80;;;11.60;;
19043;SDS011;9654;52.302;8.120;2023-05-10T11:56:03;23.77;;;12.83;;
19043;SDS011;9654;52.302;8.120;2023-05-10T11:58:30;22.13;;;12.10;;
19043;SDS011;9654;52.302;8.120;2023-05-10T12:00:57;21.13;;;12.23;;
19043;SDS011;9654;52.302;8.120;2023-05-10T12:03:26;19.50;;;12.17;;
19043;SDS011;9654;52.302;8.120;2023-05-10T12:05:53;19.20;;;12.33;;
19043;SDS011;9654;52.302;8.120;2023-05-10T12:08:21;21.40;;;13.23;;
19043;SDS011;9654;52.302;8.120;2023-05-10T12:11:03;22.50;;;12.90;;
19043;SDS011;9654;52.302;8.120;2023-05-10T12:13:31;21.43;;;11.53;;
19043;SDS011;9654;52.302;8.120;2023-05-10T12:15:58;23.27;;;11.60;;
19043;SDS011;9654;52.302;8.120;2023-05-10T12:18:27;23.87;;;13.00;;
19043;SDS011;9654;52.302;8.120;2023-05-10T12:20:53;18.47;;;11.33;;
19043;SDS011;9654;52.302;8.120;2023-05-10T12:23:20;20.57;;;10.23;;
19043;SDS011;9654;52.302;8.120;2023-05-10T12:25:47;17.57;;;10.70;;
19043;SDS011;9654;52.302;8.120;2023-05-10T12:28:14;21.53;;;11.97;;
19043;SDS011;9654;52.302;8.120;2023-05-10T12:30:41;20.50;;;10.87;;
19043;SDS011;9654;52.302;8.120;2023-05-10T12:33:08;15.80;;;9.80;;
19043;SDS011;9654;52.302;8.120;2023-05-10T12:35:44;15.13;;;9.23;;
19043;SDS011;9654;52.302;8.120;2023-05-10T12:38:25;18.10;;;9.83;;
19043;SDS011;9654;52.302;8.120;2023-05-10T12:40:54;17.17;;;9.53;;
19043;SDS011;9654;52.302;8.120;2023-05-10T12:43:21;15.63;;;8.73;;
19043;SDS011;9654;52.302;8.120;2023-05-10T12:45:48;15.03;;;8.07;;
19043;SDS011;9654;52.302;8.120;2023-05-10T12:48:15;14.23;;;8.47;;
19043;SDS011;9654;52.302;8.120;2023-05-10T12:50:43;12.80;;;8.10;;
19043;SDS011;9654;52.302;8.120;2023-05-10T12:53:10;14.80;;;8.97;;
19043;SDS011;9654;52.302;8.120;2023-05-10T12:55:38;13.00;;;7.67;;
19043;SDS011;9654;52.302;8.120;2023-05-10T12:58:05;15.77;;;8.83;;
19043;SDS011;9654;52.302;8.120;2023-05-10T13:00:31;17.00;;;8.73;;
19043;SDS011;9654;52.302;8.120;2023-05-10T13:02:58;14.20;;;8.80;;
19043;SDS011;9654;52.302;8.120;2023-05-10T13:05:25;15.63;;;8.63;;
19043;SDS011;9654;52.302;8.120;2023-05-10T13:07:53;15.63;;;10.13;;
19043;SDS011;9654;52.302;8.120;2023-05-10T13:10:20;15.47;;;9.27;;
19043;SDS011;9654;52.302;8.120;2023-05-10T13:12:48;16.70;;;9.40;;
19043;SDS011;9654;52.302;8.120;2023-05-10T13:15:15;14.87;;;8.47;;
19043;SDS011;9654;52.302;8.120;2023-05-10T13:17:42;18.63;;;8.80;;
19043;SDS011;9654;52.302;8.120;2023-05-10T13:20:10;16.73;;;9.43;;
19043;SDS011;9654;52.302;8.120;2023-05-10T13:22:37;15.73;;;9.27;;
19043;SDS011;9654;52.302;8.120;2023-05-10T13:25:06;18.17;;;8.87;;
19043;SDS011;9654;52.302;8.120;2023-05-10T13:27:33;18.40;;;9.53;;
19043;SDS011;9654;52.302;8.120;2023-05-10T13:30:01;18.03;;;9.20;;
19043;SDS011;9654;52.302;8.120;2023-05-10T13:32:28;19.33;;;11.23;;
19043;SDS011;9654;52.302;8.120;2023-05-10T13:34:55;16.47;;;10.90;;
19043;SDS011;9654;52.302;8.120;2023-05-10T13:37:22;18.27;;;10.13;;
19043;SDS011;9654;52.302;8.120;2023-05-10T13:39:48;20.47;;;9.83;;
19043;SDS011;9654;52.302;8.120;2023-05-10T13:42:17;18.20;;;10.97;;
19043;SDS011;9654;52.302;8.120;2023-05-10T13:44:44;17.83;;;10.63;;
19043;SDS011;9654;52.302;8.120;2023-05-10T13:47:10;18.97;;;10.47;;
19043;SDS011;9654;52.302;8.120;2023-05-10T13:49:37;19.27;;;10.30;;
19043;SDS011;9654;52.302;8.120;2023-05-10T13:52:04;20.03;;;10.27;;
19043;SDS011;9654;52.302;8.120;2023-05-10T13:54:32;16.73;;;10.43;;
19043;SDS011;9654;52.302;8.120;2023-05-10T13:56:58;19.00;;;10.43;;
19043;SDS011;9654;52.302;8.120;2023-05-10T13:59:27;18.57;;;11.17;;
19043;SDS011;9654;52.302;8.120;2023-05-10T14:01:56;16.00;;;10.00;;
19043;SDS011;9654;52.302;8.120;2023-05-10T14:04:23;18.33;;;10.53;;
19043;SDS011;9654;52.302;8.120;2023-05-10T14:06:50;16.97;;;10.27;;
19043;SDS011;9654;52.302;8.120;2023-05-10T14:09:17;21.63;;;10.73;;
19043;SDS011;9654;52.302;8.120;2023-05-10T14:11:45;17.17;;;10.57;;
19043;SDS011;9654;52.302;8.120;2023-05-10T14:14:12;17.90;;;10.17;;
19043;SDS011;9654;52.302;8.120;2023-05-10T14:16:40;15.93;;;9.53;;
19043;SDS011;9654;52.302;8.120;2023-05-10T14:19:08;16.27;;;9.40;;
19043;SDS011;9654;52.302;8.120;2023-05-10T14:21:35;13.13;;;8.93;;
19043;SDS011;9654;52.302;8.120;2023-05-10T14:24:02;16.90;;;8.80;;
19043;SDS011;9654;52.302;8.120;2023-05-10T14:26:29;17.07;;;8.90;;
19043;SDS011;9654;52.302;8.120;2023-05-10T14:28:56;12.20;;;7.13;;
19043;SDS011;9654;52.302;8.120;2023-05-10T14:31:23;13.47;;;7.63;;
19043;SDS011;9654;52.302;8.120;2023-05-10T14:33:52;11.07;;;7.30;;
19043;SDS011;9654;52.302;8.120;2023-05-10T14:36:18;10.77;;;7.43;;
19043;SDS011;9654;52.302;8.120;2023-05-10T14:38:45;13.73;;;7.67;;
19043;SDS011;9654;52.302;8.120;2023-05-10T14:41:12;14.37;;;8.57;;
19043;SDS011;9654;52.302;8.120;2023-05-10T14:43:40;11.87;;;8.00;;
19043;SDS011;9654;52.302;8.120;2023-05-10T14:46:07;10.37;;;7.70;;
19043;SDS011;9654;52.302;8.120;2023-05-10T14:48:33;10.43;;;7.37;;
19043;SDS011;9654;52.302;8.120;2023-05-10T14:51:01;12.23;;;7.20;;
19043;SDS011;9654;52.302;8.120;2023-05-10T14:53:28;10.83;;;6.53;;
19043;SDS011;9654;52.302;8.120;2023-05-10T14:55:55;11.37;;;6.47;;
19043;SDS011;9654;52.302;8.120;2023-05-10T14:58:22;9.20;;;5.90;;
19043;SDS011;9654;52.302;8.120;2023-05-10T15:00:50;9.43;;;6.70;;
19043;SDS011;9654;52.302;8.120;2023-05-10T15:03:16;11.47;;;6.50;;
19043;SDS011;9654;52.302;8.120;2023-05-10T15:05:43;10.63;;;7.37;;
19043;SDS011;9654;52.302;8.120;2023-05-10T15:08:11;10.63;;;6.37;;
19043;SDS011;9654;52.302;8.120;2023-05-10T15:10:38;13.73;;;7.67;;
19043;SDS011;9654;52.302;8.120;2023-05-10T15:13:05;10.37;;;6.70;;